Mae Sariang, Thailand
Current Conditions -  °F | °C
As of 9:00 PM on Wednesday 28 Jan 2015 (Local Time) from VTCC Reporting Station
Clear Clear  
Wind Chill: 23°   Ceiling: Unl
Heat Index: 23°   Visibility: 6mi
Dew Point: 14°   Wind: 2mph
Humidity: 57%   Direction: 360°N
Pressure: 29.97"   Gusts: NA
Location:  18.15°N, 97.93°E
Report Text: VTCC 281400Z 36002KT CAVOK 23/14 Q1015 A2997 NOSIG
Loading
Personal Weather Stations






























Interactive Weather Map New forecast layout! Learn more

10-Day Weather Forecast

Advertisements
Track Severe Weather on mobile